METAR Formatted Surface Weather Observation
Issued by NWS

Home | Current Version | Previous Version | Text Only | Print | Product List | Glossary On
Versions: 1 2 3 4 5
000
SAUS46 KSTO 210658 COR
MTRBLU
METAR KBLU 210652Z AUTO 00000KT 10SM CLR M06/M13 A3005 RMK AO2
SLP220 T10611128 TSNO



USA.gov is the U.S. government's official web portal to all federal, state and local government web resources and services.